sensor_id;sensor_type;location;lat;lon;timestamp;P1;durP1;ratioP1;P2;durP2;ratioP2
50769;SDS011;36740;48.698;11.472;2023-02-15T00:01:09;31.73;;;18.92;;
50769;SDS011;36740;48.698;11.472;2023-02-15T00:03:55;34.42;;;20.27;;
50769;SDS011;36740;48.698;11.472;2023-02-15T00:06:41;51.20;;;21.77;;
50769;SDS011;36740;48.698;11.472;2023-02-15T00:09:26;36.08;;;19.45;;
50769;SDS011;36740;48.698;11.472;2023-02-15T00:12:12;62.55;;;20.50;;
50769;SDS011;36740;48.698;11.472;2023-02-15T00:14:58;22.52;;;17.27;;
50769;SDS011;36740;48.698;11.472;2023-02-15T00:17:43;51.90;;;20.52;;
50769;SDS011;36740;48.698;11.472;2023-02-15T00:20:29;41.17;;;20.65;;
50769;SDS011;36740;48.698;11.472;2023-02-15T00:23:15;135.52;;;25.70;;
50769;SDS011;36740;48.698;11.472;2023-02-15T00:26:07;38.20;;;20.95;;
50769;SDS011;36740;48.698;11.472;2023-02-15T00:28:53;31.00;;;19.17;;
50769;SDS011;36740;48.698;11.472;2023-02-15T00:31:39;35.58;;;18.73;;
50769;SDS011;36740;48.698;11.472;2023-02-15T00:34:26;57.33;;;18.42;;
50769;SDS011;36740;48.698;11.472;2023-02-15T00:37:12;22.40;;;13.27;;
50769;SDS011;36740;48.698;11.472;2023-02-15T00:39:57;30.25;;;19.23;;
50769;SDS011;36740;48.698;11.472;2023-02-15T00:42:43;36.72;;;16.67;;
50769;SDS011;36740;48.698;11.472;2023-02-15T00:45:28;46.13;;;17.58;;
50769;SDS011;36740;48.698;11.472;2023-02-15T00:48:14;69.47;;;20.08;;
50769;SDS011;36740;48.698;11.472;2023-02-15T00:51:00;57.47;;;19.20;;
50769;SDS011;36740;48.698;11.472;2023-02-15T00:53:46;41.10;;;19.45;;
50769;SDS011;36740;48.698;11.472;2023-02-15T00:56:32;67.65;;;20.70;;
50769;SDS011;36740;48.698;11.472;2023-02-15T00:59:18;51.63;;;19.48;;
50769;SDS011;36740;48.698;11.472;2023-02-15T01:02:03;35.08;;;16.05;;
50769;SDS011;36740;48.698;11.472;2023-02-15T01:04:49;33.30;;;17.48;;
50769;SDS011;36740;48.698;11.472;2023-02-15T01:07:34;44.50;;;15.65;;
50769;SDS011;36740;48.698;11.472;2023-02-15T01:10:20;29.77;;;16.25;;
50769;SDS011;36740;48.698;11.472;2023-02-15T01:13:06;54.05;;;20.88;;
50769;SDS011;36740;48.698;11.472;2023-02-15T01:15:52;109.38;;;26.15;;
50769;SDS011;36740;48.698;11.472;2023-02-15T01:18:38;33.35;;;18.10;;
50769;SDS011;36740;48.698;11.472;2023-02-15T01:21:24;75.70;;;17.98;;
50769;SDS011;36740;48.698;11.472;2023-02-15T01:24:13;47.42;;;18.63;;
50769;SDS011;36740;48.698;11.472;2023-02-15T01:26:59;240.95;;;34.85;;
50769;SDS011;36740;48.698;11.472;2023-02-15T01:29:44;187.73;;;30.67;;
50769;SDS011;36740;48.698;11.472;2023-02-15T01:32:30;26.05;;;18.65;;
50769;SDS011;36740;48.698;11.472;2023-02-15T01:35:16;43.40;;;18.00;;
50769;SDS011;36740;48.698;11.472;2023-02-15T01:38:01;30.85;;;18.88;;
50769;SDS011;36740;48.698;11.472;2023-02-15T01:40:50;50.72;;;17.88;;
50769;SDS011;36740;48.698;11.472;2023-02-15T01:43:42;30.73;;;18.30;;
50769;SDS011;36740;48.698;11.472;2023-02-15T01:49:17;23.85;;;15.70;;
50769;SDS011;36740;48.698;11.472;2023-02-15T01:52:04;47.55;;;18.45;;
50769;SDS011;36740;48.698;11.472;2023-02-15T01:54:49;31.30;;;18.42;;
50769;SDS011;36740;48.698;11.472;2023-02-15T01:57:35;47.85;;;22.35;;
50769;SDS011;36740;48.698;11.472;2023-02-15T02:00:21;30.15;;;16.88;;
50769;SDS011;36740;48.698;11.472;2023-02-15T02:03:07;31.17;;;19.38;;
50769;SDS011;36740;48.698;11.472;2023-02-15T02:05:52;22.88;;;17.17;;
50769;SDS011;36740;48.698;11.472;2023-02-15T02:08:38;31.38;;;18.65;;
50769;SDS011;36740;48.698;11.472;2023-02-15T02:11:24;36.60;;;18.88;;
50769;SDS011;36740;48.698;11.472;2023-02-15T02:14:10;32.92;;;16.88;;
50769;SDS011;36740;48.698;11.472;2023-02-15T02:17:03;21.42;;;15.20;;
50769;SDS011;36740;48.698;11.472;2023-02-15T02:31:52;23.70;;;16.40;;
50769;SDS011;36740;48.698;11.472;2023-02-15T02:34:43;27.33;;;16.77;;
50769;SDS011;36740;48.698;11.472;2023-02-15T02:37:37;26.55;;;15.10;;
50769;SDS011;36740;48.698;11.472;2023-02-15T02:40:43;21.50;;;14.75;;
50769;SDS011;36740;48.698;11.472;2023-02-15T02:44:07;32.08;;;18.60;;
50769;SDS011;36740;48.698;11.472;2023-02-15T02:46:50;24.63;;;14.98;;
50769;SDS011;36740;48.698;11.472;2023-02-15T02:49:38;31.80;;;14.95;;
50769;SDS011;36740;48.698;11.472;2023-02-15T02:52:37;30.42;;;18.52;;
50769;SDS011;36740;48.698;11.472;2023-02-15T03:01:35;24.23;;;15.50;;
50769;SDS011;36740;48.698;11.472;2023-02-15T03:04:31;22.92;;;15.45;;
50769;SDS011;36740;48.698;11.472;2023-02-15T03:07:19;30.65;;;17.55;;
50769;SDS011;36740;48.698;11.472;2023-02-15T03:10:07;32.47;;;20.15;;
50769;SDS011;36740;48.698;11.472;2023-02-15T03:12:53;22.05;;;15.85;;
50769;SDS011;36740;48.698;11.472;2023-02-15T03:15:39;26.73;;;18.02;;
50769;SDS011;36740;48.698;11.472;2023-02-15T03:18:45;27.33;;;15.18;;
50769;SDS011;36740;48.698;11.472;2023-02-15T03:21:47;23.73;;;17.33;;
50769;SDS011;36740;48.698;11.472;2023-02-15T03:24:59;25.85;;;16.30;;
50769;SDS011;36740;48.698;11.472;2023-02-15T03:27:48;29.30;;;19.70;;
50769;SDS011;36740;48.698;11.472;2023-02-15T03:30:34;29.45;;;19.98;;
50769;SDS011;36740;48.698;11.472;2023-02-15T03:33:20;33.55;;;16.95;;
50769;SDS011;36740;48.698;11.472;2023-02-15T03:36:16;22.15;;;13.82;;
50769;SDS011;36740;48.698;11.472;2023-02-15T03:42:35;21.75;;;14.75;;
50769;SDS011;36740;48.698;11.472;2023-02-15T03:45:05;20.83;;;15.38;;
50769;SDS011;36740;48.698;11.472;2023-02-15T03:47:53;26.48;;;15.80;;
50769;SDS011;36740;48.698;11.472;2023-02-15T03:50:41;24.73;;;15.20;;
50769;SDS011;36740;48.698;11.472;2023-02-15T03:53:45;35.63;;;17.38;;
50769;SDS011;36740;48.698;11.472;2023-02-15T03:56:33;23.33;;;14.27;;
50769;SDS011;36740;48.698;11.472;2023-02-15T03:59:19;45.70;;;18.05;;
50769;SDS011;36740;48.698;11.472;2023-02-15T04:02:24;23.65;;;14.48;;
50769;SDS011;36740;48.698;11.472;2023-02-15T04:05:11;27.88;;;15.77;;
50769;SDS011;36740;48.698;11.472;2023-02-15T04:07:57;26.08;;;14.65;;
50769;SDS011;36740;48.698;11.472;2023-02-15T04:10:42;31.10;;;18.40;;
50769;SDS011;36740;48.698;11.472;2023-02-15T04:13:37;25.35;;;17.02;;
50769;SDS011;36740;48.698;11.472;2023-02-15T04:16:23;23.70;;;16.73;;
50769;SDS011;36740;48.698;11.472;2023-02-15T04:19:09;18.13;;;14.43;;
50769;SDS011;36740;48.698;11.472;2023-02-15T04:22:13;25.88;;;15.40;;
50769;SDS011;36740;48.698;11.472;2023-02-15T04:25:17;54.00;;;19.63;;
50769;SDS011;36740;48.698;11.472;2023-02-15T04:28:03;38.28;;;18.08;;
50769;SDS011;36740;48.698;11.472;2023-02-15T04:30:49;23.73;;;14.77;;
50769;SDS011;36740;48.698;11.472;2023-02-15T04:33:34;45.05;;;21.08;;
50769;SDS011;36740;48.698;11.472;2023-02-15T04:36:21;27.52;;;15.88;;
50769;SDS011;36740;48.698;11.472;2023-02-15T04:39:06;22.60;;;15.48;;
50769;SDS011;36740;48.698;11.472;2023-02-15T04:41:52;30.60;;;15.95;;
50769;SDS011;36740;48.698;11.472;2023-02-15T04:44:38;27.05;;;19.52;;
50769;SDS011;36740;48.698;11.472;2023-02-15T04:47:23;19.85;;;12.90;;
50769;SDS011;36740;48.698;11.472;2023-02-15T04:50:10;28.25;;;16.80;;
50769;SDS011;36740;48.698;11.472;2023-02-15T04:52:55;44.13;;;16.10;;
50769;SDS011;36740;48.698;11.472;2023-02-15T04:55:41;29.52;;;22.02;;
50769;SDS011;36740;48.698;11.472;2023-02-15T04:58:26;28.38;;;17.58;;
50769;SDS011;36740;48.698;11.472;2023-02-15T05:01:12;28.83;;;16.30;;
50769;SDS011;36740;48.698;11.472;2023-02-15T05:03:58;34.95;;;19.73;;
50769;SDS011;36740;48.698;11.472;2023-02-15T05:06:46;23.58;;;15.43;;
50769;SDS011;36740;48.698;11.472;2023-02-15T05:09:32;22.73;;;14.88;;
50769;SDS011;36740;48.698;11.472;2023-02-15T05:12:17;30.63;;;18.10;;
50769;SDS011;36740;48.698;11.472;2023-02-15T05:15:03;22.95;;;14.85;;
50769;SDS011;36740;48.698;11.472;2023-02-15T05:17:49;28.00;;;17.10;;
50769;SDS011;36740;48.698;11.472;2023-02-15T05:20:35;37.45;;;17.35;;
50769;SDS011;36740;48.698;11.472;2023-02-15T05:23:20;37.13;;;15.35;;
50769;SDS011;36740;48.698;11.472;2023-02-15T05:26:06;39.95;;;14.38;;
50769;SDS011;36740;48.698;11.472;2023-02-15T05:29:10;21.42;;;13.30;;
50769;SDS011;36740;48.698;11.472;2023-02-15T05:31:56;26.17;;;12.90;;
50769;SDS011;36740;48.698;11.472;2023-02-15T05:34:41;25.80;;;14.85;;
50769;SDS011;36740;48.698;11.472;2023-02-15T05:37:27;26.40;;;17.98;;
50769;SDS011;36740;48.698;11.472;2023-02-15T05:40:13;19.48;;;15.25;;
50769;SDS011;36740;48.698;11.472;2023-02-15T05:42:58;30.20;;;18.00;;
50769;SDS011;36740;48.698;11.472;2023-02-15T05:45:54;30.15;;;16.90;;
50769;SDS011;36740;48.698;11.472;2023-02-15T05:48:40;31.67;;;16.23;;
50769;SDS011;36740;48.698;11.472;2023-02-15T05:51:25;32.33;;;18.00;;
50769;SDS011;36740;48.698;11.472;2023-02-15T05:54:11;26.67;;;17.02;;
50769;SDS011;36740;48.698;11.472;2023-02-15T05:56:56;25.00;;;14.93;;
50769;SDS011;36740;48.698;11.472;2023-02-15T05:59:42;24.20;;;12.77;;
50769;SDS011;36740;48.698;11.472;2023-02-15T06:02:28;29.33;;;13.50;;
50769;SDS011;36740;48.698;11.472;2023-02-15T06:05:13;18.50;;;14.80;;
50769;SDS011;36740;48.698;11.472;2023-02-15T06:07:59;50.80;;;16.75;;
50769;SDS011;36740;48.698;11.472;2023-02-15T06:10:47;28.92;;;15.48;;
50769;SDS011;36740;48.698;11.472;2023-02-15T06:13:33;25.70;;;15.98;;
50769;SDS011;36740;48.698;11.472;2023-02-15T06:16:19;76.32;;;20.38;;
50769;SDS011;36740;48.698;11.472;2023-02-15T06:19:05;24.95;;;18.80;;
50769;SDS011;36740;48.698;11.472;2023-02-15T06:21:50;27.00;;;17.35;;
50769;SDS011;36740;48.698;11.472;2023-02-15T06:24:36;24.05;;;15.98;;
50769;SDS011;36740;48.698;11.472;2023-02-15T06:27:21;26.13;;;15.80;;
50769;SDS011;36740;48.698;11.472;2023-02-15T06:30:07;21.48;;;14.50;;
50769;SDS011;36740;48.698;11.472;2023-02-15T06:32:53;23.90;;;14.40;;
50769;SDS011;36740;48.698;11.472;2023-02-15T06:35:39;24.80;;;16.42;;
50769;SDS011;36740;48.698;11.472;2023-02-15T06:38:25;20.40;;;15.20;;
50769;SDS011;36740;48.698;11.472;2023-02-15T06:41:10;30.13;;;15.10;;
50769;SDS011;36740;48.698;11.472;2023-02-15T06:43:56;30.77;;;20.90;;
50769;SDS011;36740;48.698;11.472;2023-02-15T06:46:41;24.05;;;15.55;;
50769;SDS011;36740;48.698;11.472;2023-02-15T06:49:27;27.35;;;16.52;;
50769;SDS011;36740;48.698;11.472;2023-02-15T06:52:13;24.92;;;17.60;;
50769;SDS011;36740;48.698;11.472;2023-02-15T06:55:01;33.80;;;17.20;;
50769;SDS011;36740;48.698;11.472;2023-02-15T06:57:47;31.98;;;20.05;;
50769;SDS011;36740;48.698;11.472;2023-02-15T07:00:33;33.25;;;19.95;;
50769;SDS011;36740;48.698;11.472;2023-02-15T07:03:18;30.10;;;19.58;;
50769;SDS011;36740;48.698;11.472;2023-02-15T07:06:07;24.75;;;17.00;;
50769;SDS011;36740;48.698;11.472;2023-02-15T07:08:53;29.70;;;19.38;;
50769;SDS011;36740;48.698;11.472;2023-02-15T07:11:39;25.30;;;16.40;;
50769;SDS011;36740;48.698;11.472;2023-02-15T07:14:43;33.60;;;18.85;;
50769;SDS011;36740;48.698;11.472;2023-02-15T07:17:28;29.10;;;17.33;;
50769;SDS011;36740;48.698;11.472;2023-02-15T07:20:19;30.45;;;17.83;;
50769;SDS011;36740;48.698;11.472;2023-02-15T07:23:05;24.30;;;15.80;;
50769;SDS011;36740;48.698;11.472;2023-02-15T07:25:56;28.08;;;18.33;;
50769;SDS011;36740;48.698;11.472;2023-02-15T07:28:42;25.77;;;16.13;;
50769;SDS011;36740;48.698;11.472;2023-02-15T07:31:27;22.17;;;17.80;;
50769;SDS011;36740;48.698;11.472;2023-02-15T07:34:13;23.63;;;16.65;;
50769;SDS011;36740;48.698;11.472;2023-02-15T07:36:59;34.25;;;19.35;;
50769;SDS011;36740;48.698;11.472;2023-02-15T07:39:47;43.88;;;26.55;;
50769;SDS011;36740;48.698;11.472;2023-02-15T07:42:32;35.42;;;25.08;;
50769;SDS011;36740;48.698;11.472;2023-02-15T07:45:18;35.38;;;18.70;;
50769;SDS011;36740;48.698;11.472;2023-02-15T07:48:04;34.90;;;20.38;;
50769;SDS011;36740;48.698;11.472;2023-02-15T07:50:50;33.08;;;16.98;;
50769;SDS011;36740;48.698;11.472;2023-02-15T07:53:36;31.83;;;17.40;;
50769;SDS011;36740;48.698;11.472;2023-02-15T07:56:22;31.77;;;16.48;;
50769;SDS011;36740;48.698;11.472;2023-02-15T07:59:08;25.50;;;17.42;;
50769;SDS011;36740;48.698;11.472;2023-02-15T08:01:54;31.25;;;15.50;;
50769;SDS011;36740;48.698;11.472;2023-02-15T08:04:41;29.65;;;12.50;;
50769;SDS011;36740;48.698;11.472;2023-02-15T08:07:27;26.58;;;16.90;;
50769;SDS011;36740;48.698;11.472;2023-02-15T08:10:15;36.35;;;16.15;;
50769;SDS011;36740;48.698;11.472;2023-02-15T08:13:21;25.25;;;17.80;;
50769;SDS011;36740;48.698;11.472;2023-02-15T08:16:06;45.30;;;19.30;;
50769;SDS011;36740;48.698;11.472;2023-02-15T08:18:52;24.80;;;14.88;;
50769;SDS011;36740;48.698;11.472;2023-02-15T08:21:40;26.58;;;16.95;;
50769;SDS011;36740;48.698;11.472;2023-02-15T08:24:27;23.17;;;15.88;;
50769;SDS011;36740;48.698;11.472;2023-02-15T08:27:13;30.05;;;16.95;;
50769;SDS011;36740;48.698;11.472;2023-02-15T08:29:58;20.40;;;16.25;;
50769;SDS011;36740;48.698;11.472;2023-02-15T08:32:44;21.52;;;16.67;;
50769;SDS011;36740;48.698;11.472;2023-02-15T08:35:29;27.30;;;16.48;;
50769;SDS011;36740;48.698;11.472;2023-02-15T08:38:15;27.17;;;13.75;;
50769;SDS011;36740;48.698;11.472;2023-02-15T08:41:16;22.55;;;13.00;;
50769;SDS011;36740;48.698;11.472;2023-02-15T08:44:03;25.08;;;16.67;;
50769;SDS011;36740;48.698;11.472;2023-02-15T08:46:49;26.55;;;17.27;;
50769;SDS011;36740;48.698;11.472;2023-02-15T08:49:35;19.08;;;11.52;;
50769;SDS011;36740;48.698;11.472;2023-02-15T08:52:20;22.00;;;14.90;;
50769;SDS011;36740;48.698;11.472;2023-02-15T08:55:06;19.73;;;13.52;;
50769;SDS011;36740;48.698;11.472;2023-02-15T08:57:52;19.67;;;13.18;;
50769;SDS011;36740;48.698;11.472;2023-02-15T09:00:40;17.92;;;10.98;;
50769;SDS011;36740;48.698;11.472;2023-02-15T09:03:26;20.65;;;12.07;;
50769;SDS011;36740;48.698;11.472;2023-02-15T09:06:12;23.40;;;12.68;;
50769;SDS011;36740;48.698;11.472;2023-02-15T09:08:57;28.02;;;12.77;;
50769;SDS011;36740;48.698;11.472;2023-02-15T09:11:44;22.23;;;12.30;;
50769;SDS011;36740;48.698;11.472;2023-02-15T09:14:29;25.02;;;17.30;;
50769;SDS011;36740;48.698;11.472;2023-02-15T09:17:15;20.52;;;15.48;;
50769;SDS011;36740;48.698;11.472;2023-02-15T09:20:01;22.73;;;13.23;;
50769;SDS011;36740;48.698;11.472;2023-02-15T09:22:46;16.73;;;12.23;;
50769;SDS011;36740;48.698;11.472;2023-02-15T09:25:32;18.55;;;10.98;;
50769;SDS011;36740;48.698;11.472;2023-02-15T09:28:19;18.85;;;10.95;;
50769;SDS011;36740;48.698;11.472;2023-02-15T09:31:14;24.67;;;14.35;;
50769;SDS011;36740;48.698;11.472;2023-02-15T09:34:00;19.15;;;13.70;;
50769;SDS011;36740;48.698;11.472;2023-02-15T09:36:46;21.83;;;13.88;;
50769;SDS011;36740;48.698;11.472;2023-02-15T09:39:33;23.17;;;16.33;;
50769;SDS011;36740;48.698;11.472;2023-02-15T09:42:42;17.27;;;13.73;;
50769;SDS011;36740;48.698;11.472;2023-02-15T09:48:42;23.85;;;12.55;;
50769;SDS011;36740;48.698;11.472;2023-02-15T09:57:18;18.58;;;13.50;;
50769;SDS011;36740;48.698;11.472;2023-02-15T10:03:09;23.85;;;13.88;;
50769;SDS011;36740;48.698;11.472;2023-02-15T10:28:50;18.52;;;13.18;;
50769;SDS011;36740;48.698;11.472;2023-02-15T10:57:28;22.73;;;12.98;;
50769;SDS011;36740;48.698;11.472;2023-02-15T11:01:01;27.75;;;16.58;;
50769;SDS011;36740;48.698;11.472;2023-02-15T11:06:14;25.45;;;15.65;;
50769;SDS011;36740;48.698;11.472;2023-02-15T11:09:07;20.98;;;15.20;;
50769;SDS011;36740;48.698;11.472;2023-02-15T11:11:55;27.80;;;13.43;;
50769;SDS011;36740;48.698;11.472;2023-02-15T11:17:41;17.17;;;11.05;;
50769;SDS011;36740;48.698;11.472;2023-02-15T11:20:33;18.58;;;13.48;;
50769;SDS011;36740;48.698;11.472;2023-02-15T11:23:20;16.10;;;13.43;;
50769;SDS011;36740;48.698;11.472;2023-02-15T11:26:22;19.88;;;14.25;;
50769;SDS011;36740;48.698;11.472;2023-02-15T11:32:32;24.35;;;16.25;;
50769;SDS011;36740;48.698;11.472;2023-02-15T11:35:29;20.95;;;13.35;;
50769;SDS011;36740;48.698;11.472;2023-02-15T11:38:23;26.92;;;17.45;;
50769;SDS011;36740;48.698;11.472;2023-02-15T11:41:11;23.38;;;14.75;;
50769;SDS011;36740;48.698;11.472;2023-02-15T11:46:50;20.65;;;11.68;;
50769;SDS011;36740;48.698;11.472;2023-02-15T11:49:37;20.48;;;14.25;;
50769;SDS011;36740;48.698;11.472;2023-02-15T11:52:26;26.80;;;17.52;;
50769;SDS011;36740;48.698;11.472;2023-02-15T11:55:14;21.50;;;14.60;;
50769;SDS011;36740;48.698;11.472;2023-02-15T12:04:04;16.48;;;14.10;;
50769;SDS011;36740;48.698;11.472;2023-02-15T12:07:13;21.08;;;14.73;;
50769;SDS011;36740;48.698;11.472;2023-02-15T12:10:15;17.58;;;10.82;;
50769;SDS011;36740;48.698;11.472;2023-02-15T12:15:57;20.40;;;12.38;;
50769;SDS011;36740;48.698;11.472;2023-02-15T12:18:43;26.48;;;19.65;;
50769;SDS011;36740;48.698;11.472;2023-02-15T12:21:31;23.85;;;12.63;;
50769;SDS011;36740;48.698;11.472;2023-02-15T12:24:19;19.75;;;14.82;;
50769;SDS011;36740;48.698;11.472;2023-02-15T12:27:13;19.80;;;12.93;;
50769;SDS011;36740;48.698;11.472;2023-02-15T12:30:01;24.42;;;14.35;;
50769;SDS011;36740;48.698;11.472;2023-02-15T12:32:53;25.05;;;13.88;;
50769;SDS011;36740;48.698;11.472;2023-02-15T12:35:42;22.02;;;13.75;;
50769;SDS011;36740;48.698;11.472;2023-02-15T12:38:28;21.10;;;11.90;;
50769;SDS011;36740;48.698;11.472;2023-02-15T12:44:15;26.08;;;15.50;;
50769;SDS011;36740;48.698;11.472;2023-02-15T12:50:07;22.52;;;14.95;;
50769;SDS011;36740;48.698;11.472;2023-02-15T12:53:05;19.48;;;13.93;;
50769;SDS011;36740;48.698;11.472;2023-02-15T12:56:01;21.00;;;14.07;;
50769;SDS011;36740;48.698;11.472;2023-02-15T12:58:48;21.23;;;16.33;;
50769;SDS011;36740;48.698;11.472;2023-02-15T13:01:49;20.40;;;15.05;;
50769;SDS011;36740;48.698;11.472;2023-02-15T13:04:36;18.85;;;11.82;;
50769;SDS011;36740;48.698;11.472;2023-02-15T13:07:22;17.25;;;12.40;;
50769;SDS011;36740;48.698;11.472;2023-02-15T13:10:18;23.80;;;13.75;;
50769;SDS011;36740;48.698;11.472;2023-02-15T13:13:10;27.80;;;14.82;;
50769;SDS011;36740;48.698;11.472;2023-02-15T13:15:58;20.08;;;13.75;;
50769;SDS011;36740;48.698;11.472;2023-02-15T13:18:45;21.70;;;15.82;;
50769;SDS011;36740;48.698;11.472;2023-02-15T13:21:36;28.58;;;16.42;;
50769;SDS011;36740;48.698;11.472;2023-02-15T13:27:12;41.67;;;14.93;;
50769;SDS011;36740;48.698;11.472;2023-02-15T13:30:00;40.55;;;16.60;;
50769;SDS011;36740;48.698;11.472;2023-02-15T13:32:48;23.92;;;14.15;;
50769;SDS011;36740;48.698;11.472;2023-02-15T13:35:37;24.48;;;15.02;;
50769;SDS011;36740;48.698;11.472;2023-02-15T13:47:09;17.88;;;12.50;;
50769;SDS011;36740;48.698;11.472;2023-02-15T14:01:49;26.23;;;14.55;;
50769;SDS011;36740;48.698;11.472;2023-02-15T14:07:31;23.58;;;14.77;;
50769;SDS011;36740;48.698;11.472;2023-02-15T14:16:02;21.52;;;13.05;;
50769;SDS011;36740;48.698;11.472;2023-02-15T14:18:50;21.10;;;12.05;;
50769;SDS011;36740;48.698;11.472;2023-02-15T14:30:00;19.67;;;13.13;;
50769;SDS011;36740;48.698;11.472;2023-02-15T14:32:51;22.10;;;13.80;;
50769;SDS011;36740;48.698;11.472;2023-02-15T14:35:38;20.63;;;14.40;;
50769;SDS011;36740;48.698;11.472;2023-02-15T14:38:32;26.73;;;18.75;;
50769;SDS011;36740;48.698;11.472;2023-02-15T14:47:07;24.58;;;15.20;;
50769;SDS011;36740;48.698;11.472;2023-02-15T14:49:54;25.98;;;15.38;;
50769;SDS011;36740;48.698;11.472;2023-02-15T14:53:14;27.25;;;15.30;;
50769;SDS011;36740;48.698;11.472;2023-02-15T14:55:45;21.77;;;16.08;;
50769;SDS011;36740;48.698;11.472;2023-02-15T14:58:31;26.08;;;14.55;;
50769;SDS011;36740;48.698;11.472;2023-02-15T15:01:24;40.92;;;17.58;;
50769;SDS011;36740;48.698;11.472;2023-02-15T15:04:14;29.08;;;17.02;;
50769;SDS011;36740;48.698;11.472;2023-02-15T15:09:59;20.48;;;17.50;;
50769;SDS011;36740;48.698;11.472;2023-02-15T15:12:57;25.85;;;16.83;;
50769;SDS011;36740;48.698;11.472;2023-02-15T15:15:46;25.05;;;15.15;;
50769;SDS011;36740;48.698;11.472;2023-02-15T15:18:45;23.08;;;15.52;;
50769;SDS011;36740;48.698;11.472;2023-02-15T15:33:25;15.88;;;14.25;;
50769;SDS011;36740;48.698;11.472;2023-02-15T15:39:19;20.75;;;14.00;;
50769;SDS011;36740;48.698;11.472;2023-02-15T15:45:30;26.33;;;17.48;;
50769;SDS011;36740;48.698;11.472;2023-02-15T15:51:19;22.85;;;16.13;;
50769;SDS011;36740;48.698;11.472;2023-02-15T15:54:05;26.90;;;19.35;;
50769;SDS011;36740;48.698;11.472;2023-02-15T15:56:52;19.63;;;16.13;;
50769;SDS011;36740;48.698;11.472;2023-02-15T15:59:45;21.70;;;16.42;;
50769;SDS011;36740;48.698;11.472;2023-02-15T16:02:31;24.33;;;15.63;;
50769;SDS011;36740;48.698;11.472;2023-02-15T16:05:17;29.75;;;17.23;;
50769;SDS011;36740;48.698;11.472;2023-02-15T16:08:03;23.25;;;15.63;;
50769;SDS011;36740;48.698;11.472;2023-02-15T16:10:50;28.02;;;17.02;;
50769;SDS011;36740;48.698;11.472;2023-02-15T16:13:35;26.63;;;14.23;;
50769;SDS011;36740;48.698;11.472;2023-02-15T16:16:25;36.72;;;18.20;;
50769;SDS011;36740;48.698;11.472;2023-02-15T16:19:20;34.88;;;18.00;;
50769;SDS011;36740;48.698;11.472;2023-02-15T16:22:18;29.63;;;16.45;;
50769;SDS011;36740;48.698;11.472;2023-02-15T16:28:10;31.30;;;15.48;;
50769;SDS011;36740;48.698;11.472;2023-02-15T16:31:31;32.00;;;18.95;;
50769;SDS011;36740;48.698;11.472;2023-02-15T16:34:09;20.40;;;15.88;;
50769;SDS011;36740;48.698;11.472;2023-02-15T16:40:00;23.45;;;16.17;;
50769;SDS011;36740;48.698;11.472;2023-02-15T16:42:46;22.40;;;15.50;;
50769;SDS011;36740;48.698;11.472;2023-02-15T16:45:32;26.33;;;19.20;;
50769;SDS011;36740;48.698;11.472;2023-02-15T16:48:19;30.80;;;18.60;;
50769;SDS011;36740;48.698;11.472;2023-02-15T16:51:06;25.23;;;17.00;;
50769;SDS011;36740;48.698;11.472;2023-02-15T16:53:52;33.20;;;19.95;;
50769;SDS011;36740;48.698;11.472;2023-02-15T16:56:39;27.42;;;17.38;;
50769;SDS011;36740;48.698;11.472;2023-02-15T16:59:31;30.88;;;18.17;;
50769;SDS011;36740;48.698;11.472;2023-02-15T17:02:18;29.88;;;18.35;;
50769;SDS011;36740;48.698;11.472;2023-02-15T17:16:49;32.10;;;21.00;;
50769;SDS011;36740;48.698;11.472;2023-02-15T17:22:27;27.00;;;16.67;;
50769;SDS011;36740;48.698;11.472;2023-02-15T17:25:23;29.90;;;19.58;;
50769;SDS011;36740;48.698;11.472;2023-02-15T17:28:15;32.67;;;17.60;;
50769;SDS011;36740;48.698;11.472;2023-02-15T17:31:06;33.97;;;21.83;;
50769;SDS011;36740;48.698;11.472;2023-02-15T17:33:51;36.72;;;21.02;;
50769;SDS011;36740;48.698;11.472;2023-02-15T17:36:39;30.35;;;21.90;;
50769;SDS011;36740;48.698;11.472;2023-02-15T17:39:41;42.30;;;20.70;;
50769;SDS011;36740;48.698;11.472;2023-02-15T17:42:27;32.35;;;20.58;;
50769;SDS011;36740;48.698;11.472;2023-02-15T17:45:13;33.15;;;17.73;;
50769;SDS011;36740;48.698;11.472;2023-02-15T17:48:00;32.42;;;20.90;;
50769;SDS011;36740;48.698;11.472;2023-02-15T17:50:50;27.92;;;17.63;;
50769;SDS011;36740;48.698;11.472;2023-02-15T17:53:35;36.92;;;20.30;;
50769;SDS011;36740;48.698;11.472;2023-02-15T17:56:22;29.63;;;19.38;;
50769;SDS011;36740;48.698;11.472;2023-02-15T17:59:07;37.13;;;20.23;;
50769;SDS011;36740;48.698;11.472;2023-02-15T18:01:55;33.08;;;21.33;;
50769;SDS011;36740;48.698;11.472;2023-02-15T18:04:59;27.90;;;20.25;;
50769;SDS011;36740;48.698;11.472;2023-02-15T18:08:04;27.80;;;20.17;;
50769;SDS011;36740;48.698;11.472;2023-02-15T18:11:09;28.40;;;21.35;;
50769;SDS011;36740;48.698;11.472;2023-02-15T18:14:13;30.98;;;19.65;;
50769;SDS011;36740;48.698;11.472;2023-02-15T18:16:59;31.33;;;18.55;;
50769;SDS011;36740;48.698;11.472;2023-02-15T18:19:47;35.17;;;21.10;;
50769;SDS011;36740;48.698;11.472;2023-02-15T18:22:33;32.92;;;20.75;;
50769;SDS011;36740;48.698;11.472;2023-02-15T18:25:20;32.88;;;21.02;;
50769;SDS011;36740;48.698;11.472;2023-02-15T18:28:07;38.53;;;22.92;;
50769;SDS011;36740;48.698;11.472;2023-02-15T18:30:56;31.10;;;19.92;;
50769;SDS011;36740;48.698;11.472;2023-02-15T18:33:46;34.47;;;22.13;;
50769;SDS011;36740;48.698;11.472;2023-02-15T18:36:41;35.05;;;22.38;;
50769;SDS011;36740;48.698;11.472;2023-02-15T18:39:41;30.55;;;16.88;;
50769;SDS011;36740;48.698;11.472;2023-02-15T18:42:31;28.48;;;19.83;;
50769;SDS011;36740;48.698;11.472;2023-02-15T18:45:28;32.28;;;20.17;;
50769;SDS011;36740;48.698;11.472;2023-02-15T18:48:17;29.23;;;23.33;;
50769;SDS011;36740;48.698;11.472;2023-02-15T18:51:03;36.40;;;21.60;;
50769;SDS011;36740;48.698;11.472;2023-02-15T18:53:50;30.17;;;18.13;;
50769;SDS011;36740;48.698;11.472;2023-02-15T18:56:57;35.95;;;24.15;;
50769;SDS011;36740;48.698;11.472;2023-02-15T18:59:47;35.58;;;20.83;;
50769;SDS011;36740;48.698;11.472;2023-02-15T19:02:45;27.85;;;19.15;;
50769;SDS011;36740;48.698;11.472;2023-02-15T19:05:45;35.45;;;21.27;;
50769;SDS011;36740;48.698;11.472;2023-02-15T19:08:31;27.90;;;18.52;;
50769;SDS011;36740;48.698;11.472;2023-02-15T19:11:26;33.85;;;22.50;;
50769;SDS011;36740;48.698;11.472;2023-02-15T19:17:17;32.58;;;21.17;;
50769;SDS011;36740;48.698;11.472;2023-02-15T19:20:03;34.35;;;22.65;;
50769;SDS011;36740;48.698;11.472;2023-02-15T19:22:50;35.17;;;21.45;;
50769;SDS011;36740;48.698;11.472;2023-02-15T19:25:36;29.52;;;19.25;;
50769;SDS011;36740;48.698;11.472;2023-02-15T19:28:26;33.97;;;21.92;;
50769;SDS011;36740;48.698;11.472;2023-02-15T19:31:14;34.95;;;19.48;;
50769;SDS011;36740;48.698;11.472;2023-02-15T19:34:09;31.25;;;22.73;;
50769;SDS011;36740;48.698;11.472;2023-02-15T19:36:55;27.58;;;22.35;;
50769;SDS011;36740;48.698;11.472;2023-02-15T19:39:41;30.10;;;19.67;;